Time;durP1;ratioP1;P1;durP2;ratioP2;P2;SDS_P1;SDS_P2;PMS_P1;PMS_P2;Temp;Humidity;BMP_temperature;BMP_pressure;BME280_temperature;BME280_humidity;BME280_pressure;Samples;Min_cycle;Max_cycle;Signal;HPM_P1;HPM_P2
2022/01/21 00:01:30;;;;;;;82.60;52.83;;;4.40;80.80;;;;;;10750044;33;20047;-72
2022/01/21 00:07:32;;;;;;;65.32;52.20;;;4.10;81.10;;;;;;10799948;32;20024;-72
2022/01/21 00:13:36;;;;;;;79.60;41.80;;;4.10;81.60;;;;;;10747414;33;20017;-72
2022/01/21 00:19:43;;;;;;;53.53;38.22;;;4.30;81.20;;;;;;10755688;33;20025;-72
2022/01/21 00:32:07;;;;;;;43.80;33.63;;;4.10;81.40;;;;;;10755618;33;20008;-72
2022/01/21 00:38:09;;;;;;;55.20;38.15;;;3.70;81.30;;;;;;10755351;33;20025;-72
2022/01/21 00:44:12;;;;;;;60.33;41.78;;;3.70;81.70;;;;;;10805331;32;20345;-71
2022/01/21 00:50:15;;;;;;;48.00;33.60;;;3.40;81.10;;;;;;10754842;33;20043;-71
2022/01/21 00:56:17;;;;;;;48.50;34.40;;;3.20;81.70;;;;;;10754809;33;20012;-72
2022/01/21 01:02:19;;;;;;;44.00;30.80;;;3.20;81.70;;;;;;10754716;33;20021;-72
2022/01/21 01:08:21;;;;;;;36.22;28.67;;;3.10;82.00;;;;;;10754576;33;20055;-72
2022/01/21 01:20:44;;;;;;;40.75;29.48;;;3.40;82.50;;;;;;10752219;32;20028;-72
2022/01/21 01:33:10;;;;;;;42.90;34.22;;;3.70;81.80;;;;;;10753949;33;20277;-72
2022/01/21 01:39:17;;;;;;;40.83;29.42;;;3.90;81.20;;;;;;10749949;33;20094;-72
2022/01/21 01:51:41;;;;;;;35.72;26.35;;;3.40;80.90;;;;;;10753309;33;20025;-72
2022/01/21 01:57:44;;;;;;;65.70;46.15;;;3.10;81.60;;;;;;10803146;32;20059;-72
2022/01/21 02:03:46;;;;;;;57.78;45.03;;;2.90;81.10;;;;;;10754019;33;20105;-72
2022/01/21 02:09:49;;;;;;;38.90;31.87;;;2.70;81.40;;;;;;10802900;32;20020;-72
2022/01/21 02:16:32;;;;;;;29.27;24.40;;;2.60;82.00;;;;;;10752723;33;20016;-72
2022/01/21 02:22:39;;;;;;;41.45;29.98;;;2.70;81.90;;;;;;10752334;33;20400;-71
2022/01/21 02:28:43;;;;;;;35.65;29.73;;;2.90;82.30;;;;;;10802685;32;20291;-72
2022/01/21 02:34:46;;;;;;;37.38;30.58;;;3.20;81.60;;;;;;10748951;33;20032;-72
2022/01/21 02:40:48;;;;;;;52.08;38.40;;;3.50;81.90;;;;;;10751079;33;20021;-72
2022/01/21 02:46:56;;;;;;;37.28;26.50;;;3.30;81.60;;;;;;10801679;32;20033;-72
2022/01/21 02:53:24;;;;;;;32.28;23.85;;;3.20;81.60;;;;;;10751614;33;20043;-72
2022/01/21 02:59:27;;;;;;;36.53;26.62;;;2.90;82.20;;;;;;10751383;33;20036;-72
2022/01/21 03:05:29;;;;;;;36.25;26.92;;;3.00;82.00;;;;;;10801262;32;20021;-72
2022/01/21 03:11:31;;;;;;;46.75;38.83;;;3.00;82.40;;;;;;10751271;33;20017;-72
2022/01/21 03:17:34;;;;;;;31.35;23.85;;;3.20;82.40;;;;;;10751091;33;20047;-72
2022/01/21 03:23:37;;;;;;;34.40;23.27;;;3.30;82.10;;;;;;10750804;33;20333;-72
2022/01/21 03:29:40;;;;;;;32.78;24.12;;;3.20;81.00;;;;;;10750789;33;20021;-72
2022/01/21 03:35:42;;;;;;;34.65;23.95;;;2.90;82.20;;;;;;10750773;33;20436;-72
2022/01/21 03:41:46;;;;;;;38.65;26.98;;;2.90;81.90;;;;;;10750428;33;20032;-72
2022/01/21 03:47:49;;;;;;;40.72;33.70;;;3.10;82.30;;;;;;10751075;33;20024;-72
2022/01/21 03:53:52;;;;;;;41.28;30.35;;;3.20;81.80;;;;;;10756713;33;20337;-72
2022/01/21 03:59:56;;;;;;;34.50;28.15;;;3.60;81.70;;;;;;10756549;33;20029;-72
2022/01/21 04:05:58;;;;;;;39.33;28.83;;;3.80;81.00;;;;;;10752268;33;20043;-72
2022/01/21 04:12:01;;;;;;;48.63;34.35;;;3.90;80.80;;;;;;10756039;33;20345;-72
2022/01/21 04:18:04;;;;;;;41.47;31.37;;;4.20;80.70;;;;;;10755789;33;20029;-72
2022/01/21 04:24:08;;;;;;;38.90;30.90;;;4.60;81.20;;;;;;10755491;33;20063;-72
2022/01/21 04:30:11;;;;;;;50.30;32.83;;;4.70;81.20;;;;;;10755605;32;20017;-72
2022/01/21 04:36:14;;;;;;;43.28;31.70;;;4.00;81.30;;;;;;10805603;32;20405;-76
2022/01/21 04:48:21;;;;;;;40.70;30.75;;;3.70;82.20;;;;;;10755049;33;20333;-76
2022/01/21 04:54:23;;;;;;;37.17;26.55;;;3.90;81.30;;;;;;10755000;33;20055;-76
2022/01/21 05:00:27;;;;;;;39.20;28.42;;;3.60;80.80;;;;;;10754067;33;20032;-76
2022/01/21 05:06:29;;;;;;;38.97;29.80;;;3.20;81.40;;;;;;10750449;33;20024;-76
2022/01/21 05:12:32;;;;;;;54.20;41.75;;;3.00;82.30;;;;;;10754342;33;20024;-76
2022/01/21 05:18:34;;;;;;;46.20;33.80;;;3.40;82.20;;;;;;10754207;33;20028;-76
2022/01/21 05:24:37;;;;;;;46.42;32.22;;;4.20;81.70;;;;;;10753958;33;20051;-76
2022/01/21 05:30:40;;;;;;;55.80;37.70;;;4.50;80.60;;;;;;10753968;33;20013;-76
2022/01/21 05:36:43;;;;;;;58.95;40.08;;;4.80;80.20;;;;;;10753664;33;20068;-76
2022/01/21 05:42:45;;;;;;;48.60;34.83;;;5.10;80.00;;;;;;10750692;33;20027;-76
2022/01/21 05:48:48;;;;;;;55.95;39.70;;;5.00;79.00;;;;;;10753119;33;20029;-76
2022/01/21 05:54:56;;;;;;;46.75;37.38;;;5.00;78.50;;;;;;10800449;32;20025;-76
2022/01/21 06:01:00;;;;;;;45.75;30.80;;;5.20;79.40;;;;;;10802148;32;20361;-77
2022/01/21 06:07:04;;;;;;;45.22;34.97;;;5.00;78.50;;;;;;10752637;33;20431;-77
2022/01/21 06:13:07;;;;;;;37.80;28.92;;;4.20;79.40;;;;;;10751620;33;20033;-77
2022/01/21 06:19:09;;;;;;;50.85;38.50;;;3.90;79.30;;;;;;10803395;32;20055;-77
2022/01/21 06:25:11;;;;;;;49.55;36.00;;;3.40;80.20;;;;;;10752309;33;20033;-77
2022/01/21 06:31:14;;;;;;;54.55;42.45;;;3.90;80.30;;;;;;10752090;33;20345;-76
2022/01/21 06:37:16;;;;;;;49.92;38.67;;;4.50;80.40;;;;;;10751912;33;20070;-76
2022/01/21 06:43:18;;;;;;;58.65;40.60;;;4.90;79.70;;;;;;10751757;33;20029;-77
2022/01/21 06:49:21;;;;;;;70.65;51.30;;;5.20;78.90;;;;;;10751697;33;20025;-77
2022/01/21 06:55:23;;;;;;;59.75;40.92;;;5.40;77.50;;;;;;10751750;33;20432;-76
2022/01/21 07:01:25;;;;;;;58.72;42.05;;;5.50;78.40;;;;;;10745394;33;20079;-77
2022/01/21 07:07:27;;;;;;;52.80;40.35;;;5.50;77.90;;;;;;10730423;33;20071;-77
2022/01/21 07:13:30;;;;;;;54.88;41.42;;;5.30;77.50;;;;;;10723251;33;20311;-78
2022/01/21 07:19:32;;;;;;;45.20;33.22;;;5.40;77.70;;;;;;10749930;33;20325;-76
2022/01/21 07:25:35;;;;;;;47.88;33.30;;;5.50;77.60;;;;;;10754819;33;20058;-77
2022/01/21 07:31:37;;;;;;;50.88;33.05;;;5.20;77.00;;;;;;10756363;33;20072;-77
2022/01/21 07:37:39;;;;;;;49.35;31.70;;;4.50;77.80;;;;;;10756481;33;20059;-77
2022/01/21 07:43:42;;;;;;;42.58;31.45;;;3.80;79.00;;;;;;10751142;33;20036;-76
2022/01/21 07:49:45;;;;;;;46.03;34.03;;;3.70;79.80;;;;;;10756489;33;20024;-77
2022/01/21 07:55:50;;;;;;;60.67;44.92;;;4.00;80.10;;;;;;10752043;33;20033;-77
2022/01/21 08:01:52;;;;;;;59.63;40.78;;;4.60;80.20;;;;;;10756153;33;20055;-77
2022/01/21 08:07:54;;;;;;;47.42;34.75;;;5.00;79.70;;;;;;10755888;33;20024;-76
2022/01/21 08:13:57;;;;;;;42.95;33.17;;;5.30;79.00;;;;;;10756207;33;20063;-73
2022/01/21 08:19:59;;;;;;;59.72;41.03;;;5.20;78.80;;;;;;10756093;33;20385;-76
2022/01/21 08:26:02;;;;;;;49.72;34.28;;;5.30;79.40;;;;;;10755636;33;20025;-76
2022/01/21 08:32:05;;;;;;;49.05;35.95;;;5.60;79.60;;;;;;10755549;33;20024;-76
2022/01/21 08:38:08;;;;;;;45.58;31.10;;;5.90;79.50;;;;;;10804831;32;20059;-75
2022/01/21 08:44:10;;;;;;;47.33;31.42;;;6.00;79.30;;;;;;10755179;32;20021;-75
2022/01/21 08:50:17;;;;;;;41.88;31.12;;;6.10;79.20;;;;;;10754977;33;20033;-75
2022/01/21 08:56:20;;;;;;;41.35;28.62;;;6.20;79.40;;;;;;10805137;32;20043;-74
2022/01/21 09:02:22;;;;;;;43.28;30.33;;;6.40;79.60;;;;;;10754469;33;20040;-74
2022/01/21 09:08:30;;;;;;;33.90;23.17;;;6.60;79.70;;;;;;10753405;33;20021;-74
2022/01/21 09:14:33;;;;;;;28.05;20.98;;;6.70;80.00;;;;;;10753271;33;20063;-73
2022/01/21 09:20:37;;;;;;;21.23;17.10;;;6.70;80.10;;;;;;10753324;33;20040;-70
2022/01/21 09:26:39;;;;;;;23.42;17.12;;;6.60;81.30;;;;;;10751425;33;20032;-72
2022/01/21 09:32:41;;;;;;;22.48;15.80;;;6.70;82.20;;;;;;10749961;33;20021;-72
2022/01/21 09:38:45;;;;;;;21.45;17.23;;;6.60;82.50;;;;;;10753574;33;20082;-73
2022/01/21 09:44:49;;;;;;;23.90;16.15;;;6.40;83.50;;;;;;10351018;28;12594674;-72
2022/01/21 09:50:54;;;;;;;19.10;14.13;;;6.40;84.10;;;;;;10709029;32;20475;-73
2022/01/21 09:56:59;;;;;;;19.25;12.80;;;6.40;83.70;;;;;;10686069;32;20083;-72
2022/01/21 10:03:04;;;;;;;17.17;12.48;;;6.60;84.00;;;;;;10677362;33;20379;-72
2022/01/21 10:09:07;;;;;;;22.40;14.40;;;6.50;83.90;;;;;;10662416;33;20040;-73
2022/01/21 10:15:10;;;;;;;20.00;11.15;;;6.60;84.10;;;;;;10644394;33;20040;-73
2022/01/21 10:21:13;;;;;;;18.42;11.30;;;6.60;83.60;;;;;;10643180;33;20052;-73
2022/01/21 10:27:23;;;;;;;15.00;10.57;;;6.70;83.80;;;;;;10644316;33;20355;-73
2022/01/21 10:33:26;;;;;;;16.85;12.25;;;6.90;83.00;;;;;;10644265;32;20026;-73
2022/01/21 10:39:30;;;;;;;15.55;9.68;;;6.70;82.40;;;;;;10643542;33;20037;-74
2022/01/21 10:45:52;;;;;;;15.63;9.07;;;6.80;82.70;;;;;;10643551;33;20022;-74
2022/01/21 10:51:55;;;;;;;14.23;9.45;;;6.80;82.00;;;;;;10654163;33;20300;-74
2022/01/21 10:58:09;;;;;;;14.52;8.07;;;6.90;81.70;;;;;;10642766;33;20029;-74
2022/01/21 11:04:12;;;;;;;16.35;9.75;;;7.00;81.90;;;;;;10658468;33;20158;-74
2022/01/21 11:10:33;;;;;;;15.27;9.07;;;7.20;81.50;;;;;;10748784;32;20051;-74
2022/01/21 11:16:36;;;;;;;22.08;11.45;;;7.40;81.60;;;;;;10677974;33;20034;-72
2022/01/21 11:22:56;;;;;;;11.30;7.15;;;7.70;81.70;;;;;;10676123;33;20052;-71
2022/01/21 11:29:00;;;;;;;10.02;6.60;;;7.90;81.70;;;;;;10661406;33;20358;-71
2022/01/21 11:35:03;;;;;;;10.18;5.87;;;8.40;81.50;;;;;;10642209;33;20018;-72
2022/01/21 11:41:06;;;;;;;9.73;6.05;;;8.70;81.10;;;;;;10642071;33;20052;-72
2022/01/21 11:53:45;;;;;;;9.10;5.00;;;8.90;79.30;;;;;;10642086;32;20330;-74
2022/01/21 11:59:58;;;;;;;7.65;4.53;;;8.90;77.50;;;;;;10667014;32;20074;-73
2022/01/21 12:06:32;;;;;;;7.55;4.25;;;8.90;77.70;;;;;;10786222;32;20029;-74
2022/01/21 12:12:51;;;;;;;6.85;3.78;;;9.00;77.10;;;;;;10663986;32;20389;-72
2022/01/21 12:25:09;;;;;;;6.15;3.50;;;9.10;76.20;;;;;;10652983;32;20338;-73
2022/01/21 12:31:16;;;;;;;6.12;3.30;;;9.10;75.60;;;;;;10652713;33;20407;-72
2022/01/21 12:37:25;;;;;;;4.95;2.60;;;9.20;75.10;;;;;;10683176;32;20076;-72
2022/01/21 12:43:56;;;;;;;7.15;3.83;;;9.20;74.50;;;;;;10678435;33;20069;-71
2022/01/21 12:50:17;;;;;;;4.57;2.58;;;9.10;74.20;;;;;;10681948;33;20029;-73
2022/01/21 12:56:23;;;;;;;4.62;2.28;;;8.90;71.90;;;;;;10682610;33;20329;-71
2022/01/21 13:02:29;;;;;;;6.35;2.67;;;8.90;71.90;;;;;;10682393;33;20055;-72
2022/01/21 13:08:39;;;;;;;4.32;2.78;;;9.10;73.20;;;;;;10678026;33;20048;-73
2022/01/21 13:14:55;;;;;;;5.07;2.65;;;9.20;73.20;;;;;;10681220;33;20033;-73
2022/01/21 13:21:05;;;;;;;9.75;5.07;;;9.30;73.20;;;;;;10680620;33;20037;-73
2022/01/21 13:27:09;;;;;;;4.87;2.15;;;9.40;72.00;;;;;;10677843;33;20025;-71
2022/01/21 13:33:13;;;;;;;5.70;2.00;;;9.40;71.20;;;;;;10677493;33;20047;-72
2022/01/21 13:39:21;;;;;;;6.78;2.67;;;9.60;73.00;;;;;;10681004;33;20048;-73
2022/01/21 13:45:23;;;;;;;2.53;1.27;;;9.70;72.80;;;;;;10681054;33;20025;-73
2022/01/21 13:51:25;;;;;;;3.55;1.67;;;9.70;71.80;;;;;;10680475;33;20021;-72
2022/01/21 13:57:29;;;;;;;3.47;1.50;;;9.90;72.40;;;;;;10680910;33;20060;-73
2022/01/21 14:03:36;;;;;;;6.57;1.50;;;9.80;72.20;;;;;;10680742;33;20025;-73
2022/01/21 14:09:38;;;;;;;3.17;1.17;;;9.60;71.70;;;;;;10679726;33;20198;-73
2022/01/21 14:15:41;;;;;;;1.80;1.15;;;9.70;71.70;;;;;;10680487;33;20333;-73
2022/01/21 14:21:47;;;;;;;3.90;1.52;;;9.80;72.40;;;;;;10679437;33;20055;-73
2022/01/21 14:27:53;;;;;;;4.35;1.37;;;10.00;71.70;;;;;;10678296;33;20022;-73
2022/01/21 14:33:55;;;;;;;3.50;1.55;;;10.20;71.00;;;;;;10676464;33;20318;-72
2022/01/21 14:40:00;;;;;;;2.37;1.23;;;10.50;71.00;;;;;;10679316;33;20021;-72
2022/01/21 14:46:04;;;;;;;2.97;1.45;;;10.60;71.40;;;;;;10679459;33;20021;-71
2022/01/21 14:58:27;;;;;;;5.18;1.52;;;10.50;72.70;;;;;;10679267;33;20064;-71
2022/01/21 15:04:35;;;;;;;3.25;1.02;;;11.40;71.40;;;;;;10679029;33;20048;-71
2022/01/21 15:10:41;;;;;;;1.08;0.62;;;11.50;70.90;;;;;;10679086;33;20322;-72
2022/01/21 15:16:45;;;;;;;1.23;0.70;;;11.10;72.20;;;;;;10676613;32;20061;-71
2022/01/21 15:22:47;;;;;;;3.60;1.33;;;10.80;72.80;;;;;;10669759;33;20115;-71
2022/01/21 15:28:51;;;;;;;1.58;0.75;;;10.90;73.60;;;;;;10674630;32;20055;-72
2022/01/21 15:34:55;;;;;;;2.55;1.33;;;11.00;73.90;;;;;;10678362;33;20321;-71
2022/01/21 15:40:58;;;;;;;4.47;1.83;;;11.60;73.50;;;;;;10678305;33;20045;-71
2022/01/21 15:47:01;;;;;;;1.08;0.98;;;11.50;73.00;;;;;;10682248;33;20021;-71
2022/01/21 15:53:03;;;;;;;2.58;1.20;;;10.70;74.20;;;;;;10684119;33;20092;-71
2022/01/21 15:59:05;;;;;;;1.45;1.02;;;10.20;75.20;;;;;;10683998;33;20029;-71
2022/01/21 16:05:08;;;;;;;5.97;2.15;;;9.70;76.00;;;;;;10681370;33;20448;-70
2022/01/21 16:11:10;;;;;;;2.60;1.30;;;9.40;76.40;;;;;;10683964;33;20021;-73
2022/01/21 16:17:12;;;;;;;3.25;1.92;;;9.10;76.70;;;;;;10683136;33;20055;-73
2022/01/21 16:23:16;;;;;;;3.92;1.73;;;8.90;76.90;;;;;;10683595;33;20025;-73
2022/01/21 16:29:18;;;;;;;3.08;1.77;;;8.70;77.00;;;;;;10683306;33;20311;-71
2022/01/21 16:35:20;;;;;;;8.02;2.95;;;8.60;77.20;;;;;;10681333;33;20026;-72
2022/01/21 16:41:23;;;;;;;6.32;3.40;;;8.50;77.20;;;;;;10682567;33;20017;-72
2022/01/21 16:47:25;;;;;;;5.75;3.42;;;8.30;77.20;;;;;;10682962;33;20048;-72
2022/01/21 16:53:28;;;;;;;6.53;3.78;;;8.20;77.30;;;;;;10682796;33;20048;-72
2022/01/21 16:59:30;;;;;;;9.98;4.65;;;8.10;77.40;;;;;;10677807;33;20076;-72
2022/01/21 17:05:33;;;;;;;8.45;4.53;;;8.00;77.30;;;;;;10682183;33;20051;-72
2022/01/21 17:11:35;;;;;;;10.88;6.18;;;7.90;77.30;;;;;;10679839;33;20041;-72
2022/01/21 17:17:38;;;;;;;16.02;7.97;;;7.70;77.60;;;;;;10684822;32;20022;-70
2022/01/21 17:23:40;;;;;;;16.42;9.27;;;7.60;77.70;;;;;;10682582;32;20350;-71
2022/01/21 17:29:42;;;;;;;12.07;8.55;;;7.50;77.60;;;;;;10681391;33;20025;-71
2022/01/21 17:35:45;;;;;;;15.50;9.77;;;7.40;77.70;;;;;;10681494;33;20385;-71
2022/01/21 17:41:48;;;;;;;17.42;11.63;;;7.30;77.80;;;;;;10721744;27;20035;-71
2022/01/21 17:47:53;;;;;;;24.85;14.55;;;7.30;77.80;;;;;;10906229;32;20019;-71
2022/01/21 17:53:55;;;;;;;14.85;10.15;;;7.20;77.70;;;;;;10892831;32;20080;-71
2022/01/21 17:59:58;;;;;;;24.08;14.00;;;7.20;77.50;;;;;;10902296;32;20438;-71
2022/01/21 18:06:00;;;;;;;15.10;10.45;;;7.20;77.60;;;;;;10906036;32;20038;-71
2022/01/21 18:12:03;;;;;;;19.90;10.95;;;7.10;77.50;;;;;;10905656;32;20042;-71
2022/01/21 18:18:10;;;;;;;19.30;9.98;;;7.00;77.60;;;;;;10905347;32;20062;-71
2022/01/21 18:24:12;;;;;;;13.62;9.45;;;7.00;77.60;;;;;;10892211;32;20046;-71
2022/01/21 18:30:18;;;;;;;12.60;8.38;;;6.90;77.60;;;;;;10905236;32;20340;-73
2022/01/21 18:36:20;;;;;;;14.18;10.25;;;6.90;77.50;;;;;;10905128;32;20019;-71
2022/01/21 18:42:30;;;;;;;15.48;11.52;;;6.80;77.50;;;;;;10904987;32;20030;-72
2022/01/21 18:48:33;;;;;;;15.27;9.20;;;6.70;77.50;;;;;;10904796;32;20022;-71
2022/01/21 18:54:35;;;;;;;14.00;10.15;;;6.60;77.50;;;;;;10904496;32;20027;-73
2022/01/21 19:00:38;;;;;;;15.95;11.60;;;6.50;77.80;;;;;;10902615;32;20035;-71
2022/01/21 19:06:40;;;;;;;15.45;10.20;;;6.60;77.80;;;;;;10904277;32;20030;-73
2022/01/21 19:12:43;;;;;;;13.90;10.18;;;6.50;77.80;;;;;;10904299;32;20061;-73
2022/01/21 19:18:45;;;;;;;15.35;11.10;;;6.50;77.90;;;;;;10905089;32;20027;-73
2022/01/21 19:24:52;;;;;;;15.68;10.60;;;6.20;77.90;;;;;;10911525;32;20395;-71
2022/01/21 19:30:57;;;;;;;18.35;13.38;;;6.20;78.30;;;;;;10911678;32;20336;-71
2022/01/21 19:37:00;;;;;;;19.52;14.35;;;6.30;78.10;;;;;;10911267;32;20042;-73
2022/01/21 19:43:07;;;;;;;21.23;16.40;;;6.30;78.10;;;;;;10910945;32;20035;-73
2022/01/21 19:49:12;;;;;;;27.35;20.40;;;6.00;77.80;;;;;;10910827;32;20015;-73
2022/01/21 19:55:15;;;;;;;29.20;21.25;;;5.90;78.40;;;;;;10910602;32;20031;-71
2022/01/21 20:01:22;;;;;;;31.42;23.85;;;5.80;78.00;;;;;;10910301;32;20058;-72
2022/01/21 20:13:39;;;;;;;24.80;18.42;;;5.30;77.90;;;;;;10910126;32;20019;-72
2022/01/21 20:19:41;;;;;;;26.37;16.03;;;5.10;78.30;;;;;;10910245;32;20034;-72
2022/01/21 20:25:43;;;;;;;25.40;18.42;;;5.10;78.90;;;;;;10909798;32;20016;-72
2022/01/21 20:31:48;;;;;;;36.88;27.45;;;5.30;78.80;;;;;;10901674;32;20406;-71
2022/01/21 20:37:50;;;;;;;27.08;21.73;;;5.20;78.50;;;;;;10906760;32;20093;-72
2022/01/21 20:43:52;;;;;;;29.90;21.45;;;4.90;78.60;;;;;;10905693;32;20027;-72
2022/01/21 20:49:54;;;;;;;30.30;22.35;;;5.10;78.90;;;;;;10908716;32;20024;-73
2022/01/21 20:55:57;;;;;;;31.83;21.05;;;5.20;78.80;;;;;;10908316;32;20332;-73
2022/01/21 21:02:00;;;;;;;25.90;18.80;;;5.20;78.90;;;;;;10908418;32;20297;-72
2022/01/21 21:08:03;;;;;;;31.25;22.20;;;5.30;78.90;;;;;;10908075;32;20046;-73
2022/01/21 21:14:07;;;;;;;28.05;21.62;;;5.40;78.60;;;;;;10908188;32;20019;-72
2022/01/21 21:26:38;;;;;;;27.35;19.50;;;5.40;79.00;;;;;;10907766;32;20046;-73
2022/01/21 22:24:34;;;;;;;31.65;22.62;;;5.20;79.40;;;;;;10905607;32;20030;-72
2022/01/21 22:48:52;;;;;;;33.38;22.65;;;4.60;79.60;;;;;;10905041;32;20047;-73
2022/01/21 23:01:00;;;;;;;29.08;23.58;;;4.70;79.80;;;;;;10900323;32;20095;-73
2022/01/21 23:07:05;;;;;;;31.75;23.42;;;4.70;79.60;;;;;;10903629;32;20027;-73
2022/01/21 23:13:07;;;;;;;34.78;24.05;;;4.70;79.30;;;;;;10904348;32;20033;-73
2022/01/21 23:19:09;;;;;;;30.40;22.25;;;4.70;79.60;;;;;;10903662;32;20050;-73
2022/01/21 23:25:18;;;;;;;31.92;23.75;;;4.50;79.40;;;;;;10904050;32;20050;-73
2022/01/21 23:31:21;;;;;;;36.50;27.92;;;4.40;80.00;;;;;;10903992;32;20400;-72
2022/01/21 23:37:23;;;;;;;40.80;28.70;;;4.60;79.90;;;;;;10903101;32;20023;-72
2022/01/21 23:43:25;;;;;;;34.92;28.65;;;4.60;79.70;;;;;;10903686;32;20073;-72
2022/01/21 23:49:37;;;;;;;35.75;27.95;;;4.50;79.60;;;;;;10903625;32;20050;-71
2022/01/21 23:55:40;;;;;;;34.97;26.20;;;4.50;79.60;;;;;;10903676;32;20023;-72
